Time;durP1;ratioP1;P1;durP2;ratioP2;P2;SDS_P1;SDS_P2;PMS_P1;PMS_P2;Temp;Humidity;BMP_temperature;BMP_pressure;BME280_temperature;BME280_humidity;BME280_pressure;Samples;Min_cycle;Max_cycle;Signal;HPM_P1;HPM_P2
2024/01/08 00:01:55;;;;;;;8.48;5.57;;;-2.10;1.00;;;;;;5179590;28;20040;-31
2024/01/08 00:04:28;;;;;;;10.40;5.50;;;-2.10;1.00;;;;;;5163350;28;20348;-31
2024/01/08 00:07:00;;;;;;;9.27;5.22;;;-2.10;1.00;;;;;;5181243;28;20032;-31
2024/01/08 00:09:31;;;;;;;9.67;6.07;;;-2.10;1.00;;;;;;5167023;28;20037;-33
2024/01/08 00:12:05;;;;;;;8.85;5.18;;;-2.10;1.00;;;;;;5165603;28;20034;-30
2024/01/08 00:14:37;;;;;;;8.13;4.93;;;-2.10;1.00;;;;;;5185874;28;20034;-30
2024/01/08 00:17:09;;;;;;;10.07;5.55;;;-2.10;1.00;;;;;;5178042;28;20037;-30
2024/01/08 00:19:40;;;;;;;10.43;5.93;;;-2.20;1.00;;;;;;5181665;28;20040;-31
2024/01/08 00:22:11;;;;;;;9.50;5.57;;;-2.20;1.00;;;;;;5163483;28;20045;-31
2024/01/08 00:24:42;;;;;;;11.90;5.90;;;-2.20;1.00;;;;;;5182935;28;20164;-31
2024/01/08 00:27:15;;;;;;;10.43;6.40;;;-2.20;1.00;;;;;;5185904;28;20033;-30
2024/01/08 00:29:51;;;;;;;9.60;6.23;;;-2.20;1.00;;;;;;5165647;28;20030;-30
2024/01/08 00:32:25;;;;;;;7.57;5.28;;;-2.20;1.00;;;;;;5164482;28;20033;-30
2024/01/08 00:34:57;;;;;;;7.97;4.67;;;-2.20;1.00;;;;;;5180740;28;20037;-30
2024/01/08 00:37:35;;;;;;;9.63;6.77;;;-2.30;1.00;;;;;;5186271;28;20041;-30
2024/01/08 00:40:10;;;;;;;9.43;6.00;;;-2.30;1.00;;;;;;5185973;28;20045;-30
2024/01/08 00:42:41;;;;;;;10.13;5.97;;;-2.30;1.00;;;;;;5168185;28;20326;-30
2024/01/08 00:45:17;;;;;;;10.23;6.20;;;-2.30;1.00;;;;;;5182311;28;20060;-32
2024/01/08 00:47:49;;;;;;;8.15;5.22;;;-2.30;1.00;;;;;;5168909;28;20067;-32
2024/01/08 00:50:23;;;;;;;9.20;6.17;;;-2.30;1.00;;;;;;5192048;28;20029;-29
2024/01/08 00:52:56;;;;;;;11.30;5.45;;;-2.30;1.00;;;;;;5183533;28;20040;-32
2024/01/08 00:55:30;;;;;;;10.25;6.30;;;-2.30;1.00;;;;;;5184018;28;20045;-29
2024/01/08 00:58:05;;;;;;;14.90;6.77;;;-2.40;1.00;;;;;;5183041;28;20041;-29
2024/01/08 01:00:36;;;;;;;10.23;6.97;;;-2.30;1.00;;;;;;5159425;28;20037;-31
2024/01/08 01:03:12;;;;;;;10.03;6.00;;;-2.30;1.00;;;;;;5186436;28;20034;-31
2024/01/08 01:05:46;;;;;;;10.83;6.30;;;-2.40;1.00;;;;;;5185906;28;20040;-31
2024/01/08 01:08:20;;;;;;;;;;;-2.40;1.00;;;;;;5184827;28;20063;-31
2024/01/08 01:10:51;;;;;;;9.55;6.45;;;-2.40;1.00;;;;;;5180514;28;19914;-31
2024/01/08 01:13:25;;;;;;;9.63;6.10;;;-2.40;1.00;;;;;;5184848;28;20034;-31
2024/01/08 01:16:02;;;;;;;8.85;6.55;;;-2.40;1.00;;;;;;5182075;28;20330;-31
2024/01/08 01:18:36;;;;;;;8.27;5.73;;;-2.40;1.00;;;;;;5180098;28;20052;-30
2024/01/08 01:21:07;;;;;;;11.23;6.40;;;-2.40;1.00;;;;;;5186679;28;20038;-30
2024/01/08 01:23:38;;;;;;;10.43;6.87;;;-2.40;1.00;;;;;;5186136;28;20037;-30
2024/01/08 01:26:09;;;;;;;10.73;6.23;;;-2.50;1.00;;;;;;5172287;28;20033;-31
2024/01/08 01:28:41;;;;;;;11.13;6.97;;;-2.50;1.00;;;;;;5168391;28;20034;-31
2024/01/08 01:31:13;;;;;;;11.50;5.97;;;-2.50;1.00;;;;;;5182297;28;20032;-31
2024/01/08 01:33:46;;;;;;;11.37;6.20;;;-2.50;1.00;;;;;;5186413;28;20028;-31
2024/01/08 01:36:22;;;;;;;10.18;5.93;;;-2.50;1.00;;;;;;5184845;28;20029;-31
2024/01/08 01:38:57;;;;;;;9.93;6.90;;;-2.50;1.00;;;;;;5185315;28;20033;-31
2024/01/08 01:41:34;;;;;;;10.63;6.37;;;-2.50;1.00;;;;;;5166991;28;20072;-31
2024/01/08 01:44:05;;;;;;;10.43;6.83;;;-2.60;1.00;;;;;;5189122;28;20271;-30
2024/01/08 01:46:44;;;;;;;9.93;6.03;;;-2.60;1.00;;;;;;5185529;28;20033;-30
2024/01/08 01:49:22;;;;;;;10.43;6.40;;;-2.60;1.00;;;;;;5189129;28;20042;-31
2024/01/08 01:51:59;;;;;;;15.53;7.07;;;-2.60;1.00;;;;;;5198660;28;20029;-30
2024/01/08 01:54:31;;;;;;;9.97;6.30;;;-2.60;1.00;;;;;;5190309;28;20023;-30
2024/01/08 01:57:04;;;;;;;8.67;6.13;;;-2.60;1.00;;;;;;5186348;28;20091;-30
2024/01/08 01:59:35;;;;;;;11.87;6.93;;;-2.60;1.00;;;;;;5187207;28;20029;-32
2024/01/08 02:02:11;;;;;;;13.80;6.80;;;-2.60;1.00;;;;;;5185543;28;20046;-31
2024/01/08 02:04:43;;;;;;;13.37;7.33;;;-2.60;1.00;;;;;;5188353;28;20233;-31
2024/01/08 02:07:17;;;;;;;12.10;7.53;;;-2.60;1.00;;;;;;5189089;28;20327;-31
2024/01/08 02:09:49;;;;;;;10.33;6.23;;;-2.60;1.00;;;;;;5171850;28;20318;-31
2024/01/08 02:12:25;;;;;;;8.00;5.20;;;-2.60;1.00;;;;;;5188613;28;20096;-31
2024/01/08 02:15:04;;;;;;;11.93;6.27;;;-2.60;1.00;;;;;;5185927;28;20045;-31
2024/01/08 02:17:35;;;;;;;10.13;6.10;;;-2.70;1.00;;;;;;5183274;28;20044;-30
2024/01/08 02:20:07;;;;;;;8.37;5.87;;;-2.70;1.00;;;;;;5187591;28;20057;-31
2024/01/08 02:22:42;;;;;;;12.30;6.87;;;-2.70;1.00;;;;;;5187643;28;20335;-32
2024/01/08 02:25:19;;;;;;;9.00;5.97;;;-2.60;1.00;;;;;;5186649;28;20034;-30
2024/01/08 02:27:52;;;;;;;11.03;7.37;;;-2.60;1.00;;;;;;5163831;28;20038;-32
2024/01/08 02:30:26;;;;;;;15.27;7.28;;;-2.60;1.00;;;;;;5178487;28;20423;-30
2024/01/08 02:33:06;;;;;;;9.07;6.40;;;-2.60;1.00;;;;;;5185434;28;20040;-30
2024/01/08 02:35:40;;;;;;;11.97;7.07;;;-2.60;1.00;;;;;;5185102;28;20201;-30
2024/01/08 02:38:11;;;;;;;9.80;6.40;;;-2.70;1.00;;;;;;5186273;28;20030;-30
2024/01/08 02:40:44;;;;;;;13.77;7.50;;;-2.70;1.00;;;;;;5169953;28;20355;-30
2024/01/08 02:43:16;;;;;;;9.23;6.10;;;-2.70;1.00;;;;;;5169733;28;20046;-30
2024/01/08 02:45:51;;;;;;;10.20;5.77;;;-2.70;1.00;;;;;;5183748;28;20068;-30
2024/01/08 02:48:27;;;;;;;8.20;6.83;;;-2.70;1.00;;;;;;5188264;28;20056;-30
2024/01/08 02:51:03;;;;;;;6.13;5.20;;;-2.70;1.00;;;;;;5185983;28;20033;-30
2024/01/08 02:53:41;;;;;;;9.83;6.50;;;-2.70;1.00;;;;;;5195947;28;20044;-31
2024/01/08 02:56:20;;;;;;;9.23;6.90;;;-2.70;1.00;;;;;;5179197;28;20030;-31
2024/01/08 02:58:52;;;;;;;8.17;5.73;;;-2.70;1.00;;;;;;5188603;28;20030;-30
2024/01/08 03:01:23;;;;;;;9.17;6.40;;;-2.70;1.00;;;;;;5181115;28;20064;-31
2024/01/08 03:03:55;;;;;;;8.40;6.13;;;-2.70;1.00;;;;;;5179084;28;20037;-30
2024/01/08 03:06:31;;;;;;;8.20;5.83;;;-2.70;1.00;;;;;;5187794;28;20349;-30
2024/01/08 03:09:07;;;;;;;9.83;6.43;;;-2.70;1.00;;;;;;5187381;28;20164;-31
2024/01/08 03:11:38;;;;;;;9.40;6.17;;;-2.70;1.00;;;;;;5186592;28;20236;-30
2024/01/08 03:14:16;;;;;;;11.33;6.40;;;-2.70;1.00;;;;;;5167800;28;20030;-30
2024/01/08 03:16:50;;;;;;;10.63;6.83;;;-2.70;1.00;;;;;;5167579;28;20053;-30
2024/01/08 03:19:24;;;;;;;9.85;6.38;;;-2.80;1.00;;;;;;5186915;28;20217;-30
2024/01/08 03:21:55;;;;;;;9.68;6.82;;;-2.70;1.00;;;;;;5154388;28;20042;-30
2024/01/08 03:24:30;;;;;;;10.93;6.80;;;-2.70;1.00;;;;;;5166102;28;20042;-30
2024/01/08 03:27:01;;;;;;;11.53;6.70;;;-2.80;1.00;;;;;;5168485;28;20046;-30
2024/01/08 03:29:35;;;;;;;10.77;6.07;;;-2.80;1.00;;;;;;5186998;28;20224;-30
2024/01/08 03:32:09;;;;;;;11.32;6.80;;;-2.80;1.00;;;;;;5183847;28;20033;-30
2024/01/08 03:34:46;;;;;;;9.20;5.87;;;-2.70;1.00;;;;;;5181719;28;20040;-30
2024/01/08 03:37:26;;;;;;;11.80;6.00;;;-2.80;1.00;;;;;;5187053;28;20038;-30
2024/01/08 03:40:02;;;;;;;12.00;6.63;;;-2.80;1.00;;;;;;5186525;28;20269;-30
2024/01/08 03:42:33;;;;;;;11.40;6.40;;;-2.80;1.00;;;;;;5186592;28;20390;-30
2024/01/08 03:45:08;;;;;;;9.37;6.23;;;-2.80;1.00;;;;;;5183782;28;20060;-30
2024/01/08 03:47:42;;;;;;;11.50;6.13;;;-2.80;1.00;;;;;;5179784;28;20036;-31
2024/01/08 03:50:17;;;;;;;13.02;6.53;;;-2.80;1.00;;;;;;5185865;28;20229;-31
2024/01/08 03:53:13;;;;;;;10.50;6.63;;;-2.80;1.00;;;;;;5177951;28;20045;-30
2024/01/08 03:55:46;;;;;;;11.90;6.13;;;-2.80;1.00;;;;;;5179095;28;20041;-32
2024/01/08 03:58:32;;;;;;;9.50;6.60;;;-2.80;1.00;;;;;;5186608;28;20299;-30
2024/01/08 04:01:04;;;;;;;7.80;5.13;;;-2.80;1.00;;;;;;5184192;28;20104;-30
2024/01/08 04:03:37;;;;;;;8.30;5.43;;;-2.80;1.00;;;;;;5188015;28;20049;-30
2024/01/08 04:06:08;;;;;;;8.77;6.30;;;-2.80;1.00;;;;;;5187807;28;20037;-30
2024/01/08 04:08:42;;;;;;;11.83;6.13;;;-2.80;1.00;;;;;;5170308;28;20042;-30
2024/01/08 04:11:14;;;;;;;10.48;6.72;;;-2.80;1.00;;;;;;5170433;28;20034;-30
2024/01/08 04:13:45;;;;;;;11.97;7.10;;;-2.80;1.00;;;;;;5170754;28;20038;-30
2024/01/08 04:16:19;;;;;;;8.97;6.43;;;-2.80;1.00;;;;;;5183609;28;20044;-30
2024/01/08 04:18:50;;;;;;;9.23;5.70;;;-2.80;1.00;;;;;;5167095;28;20046;-30
2024/01/08 04:21:24;;;;;;;11.47;7.10;;;-2.80;1.00;;;;;;5187664;28;20040;-30
2024/01/08 04:23:55;;;;;;;11.13;6.85;;;-2.80;1.00;;;;;;5188506;28;20452;-30
2024/01/08 04:26:31;;;;;;;11.33;6.80;;;-2.80;1.00;;;;;;5187276;28;20045;-30
2024/01/08 04:29:04;;;;;;;9.53;5.87;;;-2.80;1.00;;;;;;5169699;28;20041;-30
2024/01/08 04:31:36;;;;;;;12.57;6.70;;;-2.80;1.00;;;;;;5184939;28;20046;-30
2024/01/08 04:34:09;;;;;;;9.40;6.97;;;-2.90;1.00;;;;;;5186084;28;20340;-30
2024/01/08 04:36:46;;;;;;;9.43;6.27;;;-2.90;1.00;;;;;;5169724;28;20025;-30
2024/01/08 04:39:18;;;;;;;10.23;7.57;;;-2.90;1.00;;;;;;5182108;28;20030;-30
2024/01/08 04:41:51;;;;;;;13.40;7.30;;;-2.90;1.00;;;;;;5182214;28;20042;-30
2024/01/08 04:44:22;;;;;;;10.25;6.75;;;-2.90;1.00;;;;;;5187847;28;20334;-30
2024/01/08 04:46:57;;;;;;;13.53;6.47;;;-2.90;1.00;;;;;;5166766;28;20049;-30
2024/01/08 04:49:31;;;;;;;9.73;6.60;;;-2.80;1.00;;;;;;5169385;28;20037;-30
2024/01/08 04:52:02;;;;;;;;;;;-2.80;1.00;;;;;;5187750;28;20045;-30
2024/01/08 04:54:33;;;;;;;9.53;5.30;;;-2.90;1.00;;;;;;5186870;28;19913;-33
2024/01/08 04:57:08;;;;;;;12.27;6.70;;;-2.90;1.00;;;;;;5185043;28;20032;-30
2024/01/08 04:59:48;;;;;;;12.53;6.67;;;-2.90;1.00;;;;;;5152529;28;20037;-32
2024/01/08 05:02:19;;;;;;;9.83;5.70;;;-2.80;1.00;;;;;;5179287;28;20038;-30
2024/01/08 05:04:50;;;;;;;11.33;7.13;;;-2.80;1.00;;;;;;5185827;28;20346;-29
2024/01/08 05:07:27;;;;;;;11.77;7.63;;;-2.90;1.00;;;;;;5169892;28;20059;-30
2024/01/08 05:10:03;;;;;;;11.37;6.10;;;-2.90;1.00;;;;;;5170834;28;20306;-29
2024/01/08 05:12:39;;;;;;;11.27;6.13;;;-2.90;1.00;;;;;;5187341;28;20022;-29
2024/01/08 05:15:13;;;;;;;15.20;7.27;;;-2.90;1.00;;;;;;5181887;28;20017;-30
2024/01/08 05:17:56;;;;;;;11.18;6.75;;;-2.90;1.00;;;;;;5152315;28;20041;-30
2024/01/08 05:20:28;;;;;;;11.10;6.20;;;-2.90;1.00;;;;;;5191209;28;20037;-30
2024/01/08 05:23:03;;;;;;;8.90;5.30;;;-2.90;1.00;;;;;;5168358;28;20034;-30
2024/01/08 05:25:35;;;;;;;13.07;6.57;;;-2.90;1.00;;;;;;5168661;28;20252;-30
2024/01/08 05:28:09;;;;;;;9.73;6.40;;;-2.90;1.00;;;;;;5188482;28;20245;-32
2024/01/08 05:30:42;;;;;;;10.97;6.47;;;-2.90;1.00;;;;;;5183547;28;20314;-30
2024/01/08 05:33:16;;;;;;;8.63;5.85;;;-2.90;1.00;;;;;;5188697;28;20040;-30
2024/01/08 05:35:48;;;;;;;10.67;6.40;;;-2.90;1.00;;;;;;5173676;28;20033;-30
2024/01/08 05:38:22;;;;;;;10.37;6.73;;;-2.90;1.00;;;;;;5172674;28;20037;-30
2024/01/08 05:40:55;;;;;;;9.83;6.17;;;-2.90;1.00;;;;;;5191573;28;20349;-30
2024/01/08 05:43:29;;;;;;;9.48;6.22;;;-2.90;1.00;;;;;;5168609;28;20250;-30
2024/01/08 05:46:06;;;;;;;9.65;5.35;;;-2.90;1.00;;;;;;5182237;28;20056;-30
2024/01/08 05:48:37;;;;;;;9.93;6.27;;;-2.90;1.00;;;;;;5190365;28;20030;-30
2024/01/08 05:51:12;;;;;;;8.57;6.30;;;-3.00;1.00;;;;;;5173858;28;20056;-30
2024/01/08 05:53:43;;;;;;;9.03;5.50;;;-2.90;1.00;;;;;;5180445;28;20041;-30
2024/01/08 05:56:15;;;;;;;11.93;6.73;;;-2.90;1.00;;;;;;5163208;28;20041;-30
2024/01/08 05:58:47;;;;;;;10.63;6.30;;;-2.90;1.00;;;;;;5185826;28;20030;-30
2024/01/08 06:01:21;;;;;;;10.93;6.33;;;-2.90;1.00;;;;;;5169034;28;20040;-30
2024/01/08 06:03:53;;;;;;;12.45;6.85;;;-3.00;1.00;;;;;;5187504;28;20037;-30
2024/01/08 06:06:26;;;;;;;9.20;5.10;;;-3.00;1.00;;;;;;5183863;28;20232;-30
2024/01/08 06:09:02;;;;;;;8.05;5.18;;;-3.00;1.00;;;;;;5185127;28;20044;-30
2024/01/08 06:11:33;;;;;;;15.60;6.13;;;-3.00;1.00;;;;;;5184922;28;20034;-30
2024/01/08 06:14:07;;;;;;;8.90;5.70;;;-3.00;1.00;;;;;;5183495;28;20040;-30
2024/01/08 06:16:39;;;;;;;11.77;6.77;;;-2.90;1.00;;;;;;5163900;28;20033;-30
2024/01/08 06:19:12;;;;;;;13.47;7.03;;;-2.90;1.00;;;;;;5186435;28;20041;-30
2024/01/08 06:21:44;;;;;;;10.95;6.65;;;-2.90;1.00;;;;;;5195798;28;20037;-30
2024/01/08 06:24:15;;;;;;;12.83;7.03;;;-2.90;1.00;;;;;;5174659;28;20344;-30
2024/01/08 06:26:49;;;;;;;9.13;5.70;;;-3.00;1.00;;;;;;5187165;28;20041;-33
2024/01/08 06:29:20;;;;;;;9.52;6.40;;;-2.90;1.00;;;;;;5188755;28;20029;-30
2024/01/08 06:31:52;;;;;;;11.13;6.60;;;-2.90;1.00;;;;;;5167760;28;20033;-30
2024/01/08 06:34:25;;;;;;;11.63;7.50;;;-2.90;1.00;;;;;;5172085;28;20263;-30
2024/01/08 06:36:59;;;;;;;15.40;7.47;;;-3.00;1.00;;;;;;5189355;28;20042;-31
2024/01/08 06:39:30;;;;;;;10.82;6.88;;;-2.90;1.00;;;;;;5189882;28;20036;-30
2024/01/08 06:42:02;;;;;;;10.37;6.10;;;-2.90;1.00;;;;;;5190051;28;20034;-30
2024/01/08 06:44:33;;;;;;;9.37;6.40;;;-2.90;1.00;;;;;;5172800;28;20038;-30
2024/01/08 06:47:11;;;;;;;11.93;6.37;;;-2.90;1.00;;;;;;5186705;28;20033;-30
2024/01/08 06:49:44;;;;;;;11.50;7.00;;;-2.90;1.00;;;;;;5192250;28;20031;-30
2024/01/08 06:52:16;;;;;;;9.38;4.88;;;-2.90;1.00;;;;;;5209018;28;20037;-32
2024/01/08 06:54:49;;;;;;;11.17;6.03;;;-2.90;1.00;;;;;;5189739;28;20034;-30
2024/01/08 06:57:22;;;;;;;10.82;6.85;;;-3.00;1.00;;;;;;5170461;28;20296;-30
2024/01/08 07:00:00;;;;;;;9.83;6.17;;;-2.90;1.00;;;;;;5187982;28;20038;-30
2024/01/08 07:02:34;;;;;;;11.10;6.27;;;-2.90;1.00;;;;;;5186071;28;20034;-30
2024/01/08 07:05:05;;;;;;;10.60;6.85;;;-2.90;1.00;;;;;;5187863;28;20373;-30
2024/01/08 07:07:40;;;;;;;12.27;6.23;;;-2.90;1.00;;;;;;5188684;28;20222;-30
2024/01/08 07:10:17;;;;;;;9.30;5.80;;;-3.00;1.00;;;;;;5188038;28;20044;-30
2024/01/08 07:12:48;;;;;;;13.70;7.27;;;-2.90;1.00;;;;;;5167836;28;20049;-30
2024/01/08 07:15:40;;;;;;;11.80;7.10;;;-2.90;1.00;;;;;;5184546;28;20040;-30
2024/01/08 07:18:17;;;;;;;12.07;6.77;;;-2.90;1.00;;;;;;5188669;28;20328;-30
2024/01/08 07:20:49;;;;;;;11.23;6.50;;;-3.00;1.00;;;;;;5178251;28;20044;-30
2024/01/08 07:23:21;;;;;;;12.60;6.40;;;-3.00;1.00;;;;;;5199445;28;20041;-30
2024/01/08 07:25:52;;;;;;;10.07;5.53;;;-3.00;1.00;;;;;;5188480;28;20298;-30
2024/01/08 07:28:28;;;;;;;11.13;6.17;;;-3.00;1.00;;;;;;5188561;28;20033;-30
2024/01/08 07:31:00;;;;;;;11.57;6.60;;;-3.00;1.00;;;;;;5169322;28;20254;-30
2024/01/08 07:33:33;;;;;;;10.20;5.73;;;-2.90;1.00;;;;;;5180820;28;20043;-30
2024/01/08 07:36:05;;;;;;;12.07;6.67;;;-3.00;1.00;;;;;;5184766;28;20056;-30
2024/01/08 07:38:36;;;;;;;9.23;5.97;;;-2.90;1.00;;;;;;5187566;28;20042;-30
2024/01/08 07:41:07;;;;;;;11.47;6.53;;;-2.90;1.00;;;;;;5180900;28;20327;-30
2024/01/08 07:43:41;;;;;;;10.03;5.93;;;-2.90;1.00;;;;;;5182533;28;20060;-30
2024/01/08 07:46:19;;;;;;;12.63;6.57;;;-3.00;1.00;;;;;;5183841;28;20033;-30
2024/01/08 07:48:50;;;;;;;10.03;6.13;;;-3.10;1.00;;;;;;5185526;28;20037;-30
2024/01/08 07:51:32;;;;;;;12.63;6.13;;;-3.00;1.00;;;;;;5179435;28;20033;-30
2024/01/08 07:54:06;;;;;;;10.73;5.80;;;-3.00;1.00;;;;;;5166234;28;20310;-30
2024/01/08 07:56:40;;;;;;;11.27;6.38;;;-3.00;1.00;;;;;;5179878;28;20030;-30
2024/01/08 07:59:14;;;;;;;11.30;6.65;;;-3.00;1.00;;;;;;5186273;28;20047;-32
2024/01/08 08:01:45;;;;;;;13.47;6.77;;;-3.00;1.00;;;;;;5163753;28;20029;-30
2024/01/08 08:04:24;;;;;;;11.13;6.57;;;-3.00;1.00;;;;;;5185998;28;20238;-30
2024/01/08 08:06:58;;;;;;;14.27;7.70;;;-3.00;1.00;;;;;;5159555;28;20030;-30
2024/01/08 08:09:31;;;;;;;12.48;6.78;;;-3.00;1.00;;;;;;5180107;28;20033;-30
2024/01/08 08:12:03;;;;;;;10.35;6.25;;;-3.10;1.00;;;;;;5167322;28;20048;-30
2024/01/08 08:14:37;;;;;;;13.20;6.83;;;-3.00;1.00;;;;;;5186914;28;20026;-30
2024/01/08 08:17:11;;;;;;;10.60;6.27;;;-3.00;1.00;;;;;;5179768;28;20026;-30
2024/01/08 08:19:42;;;;;;;;;;;-2.90;1.00;;;;;;5183106;28;20044;-30
2024/01/08 08:22:16;;;;;;;9.43;6.23;;;-3.00;1.00;;;;;;5181983;28;20105;-30
2024/01/08 08:24:48;;;;;;;13.13;6.80;;;-3.00;1.00;;;;;;5184360;28;20043;-30
2024/01/08 08:27:22;;;;;;;11.93;7.13;;;-3.00;1.00;;;;;;5172706;28;20038;-30
2024/01/08 08:29:58;;;;;;;10.80;6.57;;;-3.10;1.00;;;;;;5182825;28;20221;-30
2024/01/08 08:32:32;;;;;;;12.83;7.17;;;-3.10;1.00;;;;;;5170773;28;20318;-32
2024/01/08 08:35:04;;;;;;;12.57;7.37;;;-3.10;1.00;;;;;;5185561;28;20029;-30
2024/01/08 08:37:36;;;;;;;10.83;6.80;;;-3.20;1.00;;;;;;5175833;28;20056;-30
2024/01/08 08:40:07;;;;;;;12.20;7.53;;;-3.20;1.00;;;;;;5186400;28;20048;-30
2024/01/08 08:42:44;;;;;;;10.37;6.30;;;-3.20;1.00;;;;;;5186218;28;20038;-30
2024/01/08 08:45:17;;;;;;;10.07;5.53;;;-3.20;1.00;;;;;;5184183;28;20033;-30
2024/01/08 08:47:54;;;;;;;12.37;6.57;;;-3.20;1.00;;;;;;5201801;28;20221;-30
2024/01/08 08:50:25;;;;;;;11.37;7.00;;;-3.20;1.00;;;;;;5184687;28;20029;-30
2024/01/08 08:53:05;;;;;;;12.20;7.50;;;-3.20;1.00;;;;;;5160611;28;20329;-31
2024/01/08 08:55:37;;;;;;;15.90;8.13;;;-3.30;1.00;;;;;;5184296;28;20029;-30
2024/01/08 08:58:09;;;;;;;12.30;7.67;;;-3.30;1.00;;;;;;5182791;28;20377;-30
2024/01/08 09:00:42;;;;;;;13.47;7.30;;;-3.20;1.00;;;;;;5182954;28;20314;-30
2024/01/08 09:03:14;;;;;;;11.57;6.80;;;-3.30;1.00;;;;;;5180035;28;20034;-30
2024/01/08 09:05:48;;;;;;;13.93;7.07;;;-3.30;1.00;;;;;;5182802;28;20068;-30
2024/01/08 09:08:25;;;;;;;12.57;7.67;;;-3.30;1.00;;;;;;5182065;28;20023;-30
2024/01/08 09:11:03;;;;;;;12.40;6.80;;;-3.30;1.00;;;;;;5178484;28;20049;-30
2024/01/08 09:13:36;;;;;;;15.83;7.90;;;-3.40;1.00;;;;;;5184556;28;20027;-30
2024/01/08 09:16:10;;;;;;;18.17;8.18;;;-3.40;1.00;;;;;;5166948;28;20030;-30
2024/01/08 09:18:43;;;;;;;13.68;7.25;;;-3.30;1.00;;;;;;5183188;28;20030;-30
2024/01/08 09:21:21;;;;;;;12.43;6.83;;;-3.40;1.00;;;;;;5189503;28;20041;-30
2024/01/08 09:23:53;;;;;;;14.10;7.37;;;-3.40;1.00;;;;;;5185046;28;20022;-30
2024/01/08 09:26:24;;;;;;;12.70;7.53;;;-3.40;1.00;;;;;;5174002;28;20014;-30
2024/01/08 09:28:55;;;;;;;13.93;7.83;;;-3.40;1.00;;;;;;5184547;28;20109;-30
2024/01/08 09:31:26;;;;;;;13.73;7.57;;;-3.50;1.00;;;;;;5180780;28;20030;-32
2024/01/08 09:34:00;;;;;;;11.60;7.20;;;-3.50;1.00;;;;;;5184148;28;20033;-30
2024/01/08 09:36:31;;;;;;;19.75;8.55;;;-3.50;1.00;;;;;;5182272;28;20026;-30
2024/01/08 09:39:05;;;;;;;13.83;8.40;;;-3.50;1.00;;;;;;5179451;28;20030;-30
2024/01/08 09:41:37;;;;;;;12.98;7.45;;;-3.50;1.00;;;;;;5164026;28;20034;-30
2024/01/08 09:44:16;;;;;;;15.10;7.53;;;-3.50;1.00;;;;;;5173396;28;20229;-30
2024/01/08 09:46:51;;;;;;;11.70;7.27;;;-3.50;1.00;;;;;;5162643;28;20476;-30
2024/01/08 09:49:26;;;;;;;12.50;7.33;;;-3.50;1.00;;;;;;5149664;28;20333;-31
2024/01/08 09:51:58;;;;;;;16.83;8.43;;;-3.50;1.00;;;;;;5176227;28;20357;-31
2024/01/08 09:54:33;;;;;;;16.53;8.93;;;-3.50;1.00;;;;;;5175837;28;20036;-31
2024/01/08 09:57:08;;;;;;;19.30;9.27;;;-3.50;1.00;;;;;;5168748;28;20034;-31
2024/01/08 09:59:44;;;;;;;16.97;8.93;;;-3.60;1.00;;;;;;5180877;28;20042;-30
2024/01/08 10:02:16;;;;;;;17.07;9.20;;;-3.60;1.00;;;;;;5161620;28;20053;-30
2024/01/08 10:04:50;;;;;;;14.80;8.10;;;-3.70;99.90;;;;;;5183259;28;20034;-32
2024/01/08 10:07:24;;;;;;;16.80;7.93;;;-3.70;99.90;;;;;;5187096;28;20245;-30
2024/01/08 10:10:00;;;;;;;14.57;8.13;;;-3.70;1.00;;;;;;5184694;28;20038;-30
2024/01/08 10:12:34;;;;;;;17.43;8.83;;;-3.70;99.90;;;;;;5185154;28;20034;-30
2024/01/08 10:15:08;;;;;;;13.40;7.50;;;-3.60;82.10;;;;;;5165927;28;20042;-30
2024/01/08 10:17:39;;;;;;;15.15;8.68;;;-3.60;99.90;;;;;;5188591;28;20040;-30
2024/01/08 10:20:12;;;;;;;21.27;9.40;;;-3.50;99.90;;;;;;5177275;28;20037;-30
2024/01/08 10:22:47;;;;;;;15.23;8.07;;;-3.70;1.00;;;;;;5185957;28;20048;-30
2024/01/08 10:25:24;;;;;;;17.13;8.90;;;-3.70;89.00;;;;;;5187436;28;20040;-30
2024/01/08 10:28:01;;;;;;;20.03;9.30;;;-3.60;99.90;;;;;;5189005;28;20037;-30
2024/01/08 10:30:33;;;;;;;20.23;9.07;;;-3.50;99.90;;;;;;5183473;28;20026;-30
2024/01/08 10:33:07;;;;;;;15.83;8.07;;;-3.60;1.20;;;;;;5187264;28;20032;-31
2024/01/08 10:35:39;;;;;;;;;;;-3.60;99.90;;;;;;5189136;28;20045;-30
2024/01/08 10:38:11;;;;;;;15.30;8.77;;;-3.60;99.30;;;;;;5190574;28;20190;-30
2024/01/08 10:40:42;;;;;;;14.47;7.83;;;-3.60;99.90;;;;;;5189852;28;20030;-30
2024/01/08 10:43:16;;;;;;;15.33;8.07;;;-3.60;90.90;;;;;;5187055;28;20037;-31
2024/01/08 10:45:54;;;;;;;18.63;9.07;;;-3.70;29.70;;;;;;5167618;28;20067;-31
2024/01/08 10:48:39;;;;;;;19.70;9.57;;;-3.60;99.90;;;;;;5170761;28;20025;-30
2024/01/08 10:51:16;;;;;;;16.40;9.90;;;-3.60;99.90;;;;;;5180722;28;20040;-31
2024/01/08 10:53:51;;;;;;;17.70;7.50;;;-3.50;1.00;;;;;;5180106;28;20036;-31
2024/01/08 10:56:26;;;;;;;14.47;8.47;;;-3.50;1.00;;;;;;5191011;28;20040;-31
2024/01/08 10:59:08;;;;;;;18.03;10.00;;;-3.50;1.00;;;;;;5184177;28;20056;-30
2024/01/08 11:01:40;;;;;;;18.43;8.77;;;-3.60;1.00;;;;;;5174584;28;20247;-30
2024/01/08 11:04:15;;;;;;;13.77;7.43;;;-3.60;1.00;;;;;;5170715;28;20038;-30
2024/01/08 11:06:49;;;;;;;14.10;8.10;;;-3.60;1.00;;;;;;5175192;28;20030;-31
2024/01/08 11:09:33;;;;;;;16.63;8.67;;;-3.60;1.00;;;;;;5186508;28;20034;-31
2024/01/08 11:12:10;;;;;;;18.35;9.73;;;-3.50;1.00;;;;;;5187874;28;20026;-33
2024/01/08 11:14:48;;;;;;;15.83;9.03;;;-3.50;1.00;;;;;;5183374;28;20030;-31
2024/01/08 11:17:21;;;;;;;13.80;7.63;;;-3.40;1.00;;;;;;5182402;28;20030;-31
2024/01/08 11:19:55;;;;;;;18.45;9.77;;;-3.40;1.00;;;;;;5185246;28;20036;-31
2024/01/08 11:22:29;;;;;;;17.55;8.80;;;-3.30;1.00;;;;;;5181521;28;20040;-31
2024/01/08 11:25:11;;;;;;;21.07;9.37;;;-3.40;1.00;;;;;;5185986;28;20030;-31
2024/01/08 11:27:44;;;;;;;14.83;8.43;;;-3.50;1.00;;;;;;5191470;28;20037;-31
2024/01/08 11:30:15;;;;;;;18.43;9.67;;;-3.50;1.00;;;;;;5170024;28;20032;-31
2024/01/08 11:32:58;;;;;;;15.60;8.73;;;-3.40;1.00;;;;;;5194346;28;20021;-31
2024/01/08 11:35:29;;;;;;;22.60;9.73;;;-3.30;1.00;;;;;;5186806;28;20052;-31
2024/01/08 11:38:27;;;;;;;15.47;8.00;;;-3.20;1.00;;;;;;5187343;28;20038;-31
2024/01/08 11:40:59;;;;;;;16.13;9.73;;;-3.30;1.00;;;;;;5189568;28;20349;-31
2024/01/08 11:43:34;;;;;;;14.77;9.00;;;-3.20;1.00;;;;;;5188024;28;20341;-31
2024/01/08 11:46:09;;;;;;;19.17;9.30;;;-3.30;1.00;;;;;;5184514;28;20360;-30
2024/01/08 11:48:41;;;;;;;14.33;8.17;;;-3.30;1.00;;;;;;5188008;28;20022;-30
2024/01/08 11:51:20;;;;;;;17.43;8.87;;;-3.30;1.00;;;;;;5186780;28;20060;-30
2024/01/08 11:53:52;;;;;;;21.47;10.50;;;-3.30;1.00;;;;;;5182333;28;20056;-33
2024/01/08 11:56:26;;;;;;;16.03;8.93;;;-3.30;1.00;;;;;;5183548;28;20026;-30
2024/01/08 11:58:58;;;;;;;18.33;8.90;;;-3.40;1.00;;;;;;5169698;28;20069;-30
2024/01/08 12:01:30;;;;;;;16.50;8.50;;;-3.30;1.00;;;;;;5182796;28;20025;-30
2024/01/08 12:04:01;;;;;;;16.07;9.80;;;-3.50;66.30;;;;;;5181271;28;20034;-31
2024/01/08 12:06:32;;;;;;;17.10;8.83;;;-3.50;99.90;;;;;;5184390;28;20041;-31
2024/01/08 12:09:08;;;;;;;16.80;9.20;;;-3.50;1.00;;;;;;5187286;28;20040;-31
2024/01/08 12:11:39;;;;;;;20.20;10.60;;;-3.40;1.00;;;;;;5165694;28;20053;-30
2024/01/08 12:14:13;;;;;;;16.00;9.17;;;-3.40;1.00;;;;;;5177778;28;20380;-30
2024/01/08 12:16:45;;;;;;;14.75;9.93;;;-3.30;1.00;;;;;;5184186;28;20033;-31
2024/01/08 12:19:20;;;;;;;17.87;9.43;;;-3.40;1.00;;;;;;5175634;28;20061;-32
2024/01/08 12:21:53;;;;;;;16.30;9.60;;;-3.50;1.00;;;;;;5186223;28;20030;-32
2024/01/08 12:24:24;;;;;;;21.53;10.53;;;-3.40;1.00;;;;;;5176464;28;20222;-32
2024/01/08 12:27:03;;;;;;;17.73;8.63;;;-3.40;1.00;;;;;;5184356;28;20021;-32
2024/01/08 12:29:39;;;;;;;16.40;9.70;;;-3.30;1.00;;;;;;5168217;28;20040;-31
2024/01/08 12:32:14;;;;;;;19.40;9.90;;;-3.40;1.00;;;;;;5183578;28;20034;-31
2024/01/08 12:34:48;;;;;;;18.33;9.63;;;-3.50;1.00;;;;;;5185414;28;20037;-31
2024/01/08 12:37:20;;;;;;;;;;;-3.30;1.00;;;;;;5184605;28;20018;-31
2024/01/08 12:39:54;;;;;;;16.23;9.93;;;-3.20;1.00;;;;;;5182583;28;20117;-31
2024/01/08 12:42:26;;;;;;;19.90;8.77;;;-3.10;1.00;;;;;;5181086;28;20536;-31
2024/01/08 12:45:01;;;;;;;16.43;10.03;;;-3.10;1.00;;;;;;5179112;28;20046;-31
2024/01/08 12:47:35;;;;;;;20.10;9.30;;;-3.20;1.00;;;;;;5186479;28;20025;-31
2024/01/08 12:50:10;;;;;;;19.60;9.83;;;-3.10;1.00;;;;;;5198831;28;20036;-31
2024/01/08 12:52:47;;;;;;;15.57;9.03;;;-3.10;1.00;;;;;;5186482;28;20225;-33
2024/01/08 12:55:20;;;;;;;16.63;8.70;;;-3.00;1.00;;;;;;5182079;28;20057;-31
2024/01/08 12:57:57;;;;;;;19.42;8.95;;;-3.00;1.00;;;;;;5172012;28;20040;-31
2024/01/08 13:00:28;;;;;;;19.00;11.17;;;-2.80;1.00;;;;;;5181636;28;20045;-31
2024/01/08 13:03:02;;;;;;;15.70;9.40;;;-2.90;1.00;;;;;;5186425;28;20044;-31
2024/01/08 13:05:36;;;;;;;19.70;9.52;;;-3.00;1.00;;;;;;5186846;28;20037;-31
2024/01/08 13:08:11;;;;;;;;;;;-2.80;1.00;;;;;;5185984;28;20315;-31
2024/01/08 13:10:42;;;;;;;21.77;9.35;;;-2.90;1.00;;;;;;5181362;28;20210;-31
2024/01/08 13:13:19;;;;;;;17.97;9.13;;;-2.80;1.00;;;;;;5169692;28;20036;-30
2024/01/08 13:15:57;;;;;;;15.80;8.17;;;-2.90;1.00;;;;;;5183525;28;20044;-30
2024/01/08 13:18:29;;;;;;;19.90;8.30;;;-2.90;1.00;;;;;;5185130;28;20033;-30
2024/01/08 13:21:03;;;;;;;17.87;9.77;;;-2.80;1.00;;;;;;5166532;28;20041;-30
2024/01/08 13:23:41;;;;;;;19.48;9.95;;;-2.90;1.00;;;;;;5183369;28;20221;-30
2024/01/08 13:26:13;;;;;;;18.23;9.70;;;-3.00;1.00;;;;;;5175166;28;20038;-33